createdAt,value
2022-08-30T00:01:14.244Z,23.33
2022-08-30T00:03:45.892Z,23.54
2022-08-30T00:06:14.763Z,23.19
2022-08-30T00:08:43.059Z,23.47
2022-08-30T00:11:13.003Z,23.46
2022-08-30T00:13:41.243Z,23.22
2022-08-30T00:16:09.210Z,23.19
2022-08-30T00:18:38.657Z,23.24
2022-08-30T00:21:06.677Z,23.21
2022-08-30T00:23:34.944Z,23.16
2022-08-30T00:26:02.948Z,23.12
2022-08-30T00:28:32.004Z,23.10
2022-08-30T00:31:00.228Z,23.07
2022-08-30T00:33:28.267Z,23.03
2022-08-30T00:35:57.464Z,23.01
2022-08-30T00:38:25.604Z,23.00
2022-08-30T00:40:53.600Z,22.97
2022-08-30T00:43:24.288Z,22.92
2022-08-30T00:45:55.763Z,22.94
2022-08-30T00:48:24.103Z,22.94
2022-08-30T00:50:53.887Z,22.94
2022-08-30T00:53:25.483Z,22.95
2022-08-30T00:55:53.298Z,22.90
2022-08-30T00:58:23.847Z,22.79
2022-08-30T01:00:52.033Z,22.92
2022-08-30T01:03:20.035Z,22.96
2022-08-30T01:05:47.861Z,22.68
2022-08-30T01:08:16.380Z,23.00
2022-08-30T01:10:45.669Z,22.81
2022-08-30T01:13:14.129Z,22.73
2022-08-30T01:15:41.945Z,22.86
2022-08-30T01:18:10.265Z,22.96
2022-08-30T01:20:44.701Z,22.91
2022-08-30T01:23:15.070Z,22.85
2022-08-30T01:25:43.710Z,22.81
2022-08-30T01:28:12.552Z,22.82
2022-08-30T01:30:40.534Z,22.70
2022-08-30T01:33:08.953Z,22.73
2022-08-30T01:35:47.363Z,22.81
2022-08-30T01:38:17.903Z,22.60
2022-08-30T01:40:45.889Z,22.84
2022-08-30T01:43:14.047Z,22.80
2022-08-30T01:45:42.164Z,22.86
2022-08-30T01:48:12.794Z,22.85
2022-08-30T01:50:42.235Z,22.83
2022-08-30T01:53:12.312Z,22.80
2022-08-30T01:55:42.841Z,22.75
2022-08-30T01:58:10.830Z,22.74
2022-08-30T02:00:39.237Z,22.76
2022-08-30T02:03:07.105Z,22.73
2022-08-30T02:05:35.169Z,22.76
2022-08-30T02:08:03.594Z,22.77
2022-08-30T02:10:31.694Z,22.76
2022-08-30T02:13:00.906Z,22.77
2022-08-30T02:15:28.923Z,22.75
2022-08-30T02:17:56.772Z,22.72
2022-08-30T02:20:24.761Z,22.68
2022-08-30T02:22:52.630Z,22.71
2022-08-30T02:25:21.323Z,22.70
2022-08-30T02:27:49.250Z,22.68
2022-08-30T02:30:18.512Z,22.68
2022-08-30T02:32:46.557Z,22.69
2022-08-30T02:35:14.376Z,22.49
2022-08-30T02:37:49.543Z,22.66
2022-08-30T02:40:18.374Z,22.67
2022-08-30T02:42:46.390Z,22.66
2022-08-30T02:45:15.260Z,22.63
2022-08-30T02:47:47.198Z,22.63
2022-08-30T02:50:15.345Z,22.67
2022-08-30T02:52:43.348Z,22.68
2022-08-30T02:55:16.058Z,22.69
2022-08-30T02:57:44.541Z,22.68
2022-08-30T03:00:15.666Z,22.70
2022-08-30T03:02:43.491Z,22.71
2022-08-30T03:05:13.294Z,22.69
2022-08-30T03:07:41.218Z,22.69
2022-08-30T03:10:09.602Z,22.66
2022-08-30T03:12:38.007Z,22.63
2022-08-30T03:15:06.601Z,22.60
2022-08-30T03:17:34.450Z,22.58
2022-08-30T03:20:02.471Z,22.59
2022-08-30T03:22:31.834Z,22.60
2022-08-30T03:25:01.405Z,22.61
2022-08-30T03:27:29.754Z,22.61
2022-08-30T03:32:25.390Z,22.60
2022-08-30T03:34:53.216Z,22.60
2022-08-30T03:37:25.570Z,22.60
2022-08-30T03:39:56.690Z,22.55
2022-08-30T03:42:24.832Z,22.52
2022-08-30T03:44:53.012Z,22.51
2022-08-30T03:47:20.962Z,22.30
2022-08-30T03:49:48.948Z,22.43
2022-08-30T03:52:16.881Z,22.41
2022-08-30T03:54:46.570Z,22.36
2022-08-30T03:57:19.959Z,22.33
2022-08-30T03:59:48.342Z,22.29
2022-08-30T04:02:16.311Z,22.28
2022-08-30T04:04:44.233Z,22.25
2022-08-30T04:07:12.192Z,22.19
2022-08-30T04:09:40.038Z,22.15
2022-08-30T04:12:08.211Z,22.03
2022-08-30T04:14:37.591Z,21.97
2022-08-30T04:17:05.735Z,22.02
2022-08-30T04:19:33.630Z,21.96
2022-08-30T04:22:01.959Z,21.96
2022-08-30T04:24:30.919Z,21.95
2022-08-30T04:26:58.767Z,21.94
2022-08-30T04:29:26.582Z,21.89
2022-08-30T04:31:55.833Z,21.91
2022-08-30T04:34:23.803Z,21.89
2022-08-30T04:36:51.657Z,21.86
2022-08-30T04:39:26.424Z,21.81
2022-08-30T04:41:54.283Z,21.75
2022-08-30T04:44:28.206Z,21.73
2022-08-30T04:46:57.471Z,21.70
2022-08-30T04:49:25.426Z,21.64
2022-08-30T04:51:53.420Z,21.60
2022-08-30T04:54:21.460Z,21.58
2022-08-30T04:56:49.336Z,21.29
2022-08-30T04:59:20.453Z,21.52
2022-08-30T05:01:48.679Z,21.47
2022-08-30T05:04:18.136Z,21.48
2022-08-30T05:06:46.178Z,21.47
2022-08-30T05:09:29.644Z,21.50
2022-08-30T05:11:57.510Z,21.47
2022-08-30T05:14:26.625Z,21.46
2022-08-30T05:16:54.476Z,21.51
2022-08-30T05:19:35.997Z,21.58
2022-08-30T05:22:05.216Z,21.62
2022-08-30T05:24:33.126Z,21.68
2022-08-30T05:27:01.144Z,21.70
2022-08-30T05:29:29.316Z,21.76
2022-08-30T05:31:57.114Z,21.80
2022-08-30T05:34:25.216Z,21.80
2022-08-30T05:36:54.455Z,21.76
2022-08-30T05:39:22.476Z,21.81
2022-08-30T05:41:51.022Z,21.86
2022-08-30T05:44:22.939Z,21.84
2022-08-30T05:46:53.207Z,21.85
2022-08-30T05:49:21.171Z,21.87
2022-08-30T05:51:49.044Z,21.85
2022-08-30T05:54:18.355Z,21.94
2022-08-30T05:56:46.700Z,21.72
2022-08-30T05:59:15.558Z,22.11
2022-08-30T06:01:44.332Z,22.06
2022-08-30T06:04:13.111Z,22.17
2022-08-30T06:06:41.895Z,22.10
2022-08-30T06:09:10.559Z,22.33
2022-08-30T06:11:39.848Z,22.44
2022-08-30T06:14:07.785Z,22.58
2022-08-30T06:16:39.704Z,22.82
2022-08-30T06:19:08.427Z,23.12
2022-08-30T06:21:37.035Z,23.57
2022-08-30T06:24:05.571Z,23.82
2022-08-30T06:26:33.542Z,24.21
2022-08-30T06:29:02.786Z,24.75
2022-08-30T06:31:30.898Z,25.12
2022-08-30T06:33:58.811Z,25.47
2022-08-30T06:36:26.951Z,25.85
2022-08-30T06:38:56.597Z,26.33
2022-08-30T06:41:25.337Z,26.51
2022-08-30T06:43:53.368Z,26.94
2022-08-30T06:46:24.838Z,27.15
2022-08-30T06:48:52.799Z,27.38
2022-08-30T06:51:24.388Z,27.61
2022-08-30T06:53:55.443Z,27.79
2022-08-30T06:56:25.206Z,28.02
2022-08-30T06:58:56.470Z,28.07
2022-08-30T07:01:27.075Z,28.22
2022-08-30T07:03:55.519Z,28.26
2022-08-30T07:06:23.486Z,28.77
2022-08-30T07:08:56.179Z,29.17
2022-08-30T07:11:32.152Z,29.59
2022-08-30T07:14:00.272Z,29.97
2022-08-30T07:16:29.750Z,30.11
2022-08-30T07:18:58.669Z,30.28
2022-08-30T07:21:28.758Z,30.34
2022-08-30T07:23:57.162Z,30.25
2022-08-30T07:26:26.390Z,30.28
2022-08-30T07:28:56.223Z,30.40
2022-08-30T07:31:24.716Z,30.62
2022-08-30T07:33:54.376Z,30.77
2022-08-30T07:36:22.460Z,30.81
2022-08-30T07:38:50.469Z,30.84
2022-08-30T07:41:19.974Z,30.81
2022-08-30T07:43:47.911Z,31.05
2022-08-30T07:46:15.871Z,31.00
2022-08-30T07:48:44.175Z,31.21
2022-08-30T07:51:15.155Z,31.03
2022-08-30T07:53:43.006Z,31.17
2022-08-30T07:56:11.691Z,31.35
2022-08-30T07:58:39.800Z,31.47
2022-08-30T08:01:09.960Z,31.90
2022-08-30T08:03:38.928Z,31.43
2022-08-30T08:06:07.604Z,32.20
2022-08-30T08:08:38.660Z,32.03
2022-08-30T08:11:09.734Z,32.02
2022-08-30T08:13:45.205Z,32.05
2022-08-30T08:16:22.876Z,32.12
2022-08-30T08:18:51.938Z,32.26
2022-08-30T08:21:20.033Z,32.44
2022-08-30T08:23:49.424Z,32.52
2022-08-30T08:26:17.323Z,32.49
2022-08-30T08:28:46.708Z,32.15
2022-08-30T08:31:17.755Z,32.76
2022-08-30T08:33:45.712Z,32.85
2022-08-30T08:36:13.682Z,33.24
2022-08-30T08:38:41.528Z,33.76
2022-08-30T08:41:35.267Z,33.80
2022-08-30T08:44:05.340Z,33.92
2022-08-30T08:46:37.039Z,34.17
2022-08-30T08:49:06.146Z,34.06
2022-08-30T08:51:52.677Z,34.15
2022-08-30T08:54:23.531Z,34.05
2022-08-30T08:56:52.959Z,34.17
2022-08-30T08:59:20.838Z,34.12
2022-08-30T09:02:03.274Z,33.89
2022-08-30T09:04:33.594Z,33.87
2022-08-30T09:07:03.735Z,34.09
2022-08-30T09:09:33.171Z,33.99
2022-08-30T09:12:02.670Z,33.72
2022-08-30T09:14:34.786Z,33.53
2022-08-30T09:17:03.210Z,33.83
2022-08-30T09:19:37.002Z,33.94
2022-08-30T09:22:07.384Z,33.97
2022-08-30T09:24:41.125Z,33.60
2022-08-30T09:27:23.804Z,33.64
2022-08-30T09:29:54.228Z,34.06
2022-08-30T09:32:36.993Z,34.23
2022-08-30T09:35:07.391Z,34.50
2022-08-30T09:37:39.012Z,35.27
2022-08-30T09:40:16.851Z,35.40
2022-08-30T09:43:02.622Z,35.82
2022-08-30T09:45:33.116Z,36.65
2022-08-30T09:48:01.112Z,37.05
2022-08-30T09:50:29.305Z,37.18
2022-08-30T09:53:01.098Z,36.94
2022-08-30T09:55:39.024Z,37.08
2022-08-30T09:58:11.349Z,36.64
2022-08-30T10:00:42.750Z,36.90
2022-08-30T10:03:36.174Z,36.91
2022-08-30T10:06:13.939Z,36.03
2022-08-30T10:08:52.165Z,35.64
2022-08-30T10:11:25.378Z,35.61
2022-08-30T10:14:07.688Z,35.70
2022-08-30T10:16:45.207Z,35.74
2022-08-30T10:19:29.618Z,35.64
2022-08-30T10:22:00.496Z,35.30
2022-08-30T10:24:33.474Z,34.86
2022-08-30T10:27:10.013Z,34.56
2022-08-30T10:29:43.337Z,34.68
2022-08-30T10:32:13.964Z,34.59
2022-08-30T10:34:42.605Z,34.80
2022-08-30T10:37:12.487Z,34.19
2022-08-30T10:39:42.792Z,34.78
2022-08-30T10:42:19.053Z,34.59
2022-08-30T10:44:51.431Z,34.93
2022-08-30T10:47:25.246Z,34.36
2022-08-30T10:49:56.667Z,35.53
2022-08-30T10:52:27.098Z,35.27
2022-08-30T10:54:56.745Z,38.33
2022-08-30T10:57:25.627Z,37.86
2022-08-30T10:59:58.403Z,37.23
2022-08-30T11:03:05.698Z,38.36
2022-08-30T11:05:59.886Z,38.52
2022-08-30T11:08:38.396Z,37.70
2022-08-30T11:11:13.021Z,37.58
2022-08-30T11:13:41.256Z,37.81
2022-08-30T11:16:15.404Z,37.93
2022-08-30T11:18:45.333Z,38.31
2022-08-30T11:21:22.422Z,37.41
2022-08-30T11:24:11.495Z,37.98
2022-08-30T11:26:57.292Z,36.99
2022-08-30T11:29:39.978Z,38.67
2022-08-30T11:32:49.671Z,39.48
2022-08-30T11:35:45.988Z,38.85
2022-08-30T11:38:19.891Z,38.94
2022-08-30T11:40:53.335Z,38.50
2022-08-30T11:43:54.286Z,39.71
2022-08-30T11:46:35.221Z,38.41
2022-08-30T11:49:06.951Z,37.47
2022-08-30T11:52:08.519Z,38.20
2022-08-30T11:54:44.752Z,37.06
2022-08-30T11:57:18.671Z,36.80
2022-08-30T11:59:52.213Z,36.99
2022-08-30T12:02:43.581Z,36.08
2022-08-30T12:05:26.938Z,35.83
2022-08-30T12:08:01.023Z,34.19
2022-08-30T12:10:37.950Z,34.57
2022-08-30T12:13:06.330Z,35.17
2022-08-30T12:15:58.133Z,35.34
2022-08-30T12:18:32.187Z,34.73
2022-08-30T12:21:07.810Z,34.20
2022-08-30T12:23:44.636Z,34.75
2022-08-30T12:26:20.147Z,33.38
2022-08-30T12:28:49.764Z,34.55
2022-08-30T12:31:19.467Z,33.69
2022-08-30T12:33:50.747Z,33.04
2022-08-30T12:36:32.831Z,33.81
2022-08-30T12:39:11.125Z,32.32
2022-08-30T12:41:43.710Z,31.79
2022-08-30T12:44:15.865Z,33.32
2022-08-30T12:46:44.645Z,32.64
2022-08-30T12:49:14.408Z,33.69
2022-08-30T12:51:43.936Z,32.06
2022-08-30T12:54:18.207Z,31.88
2022-08-30T12:57:03.682Z,32.97
2022-08-30T12:59:52.837Z,32.31
2022-08-30T13:02:24.225Z,33.02
2022-08-30T13:04:52.805Z,32.92
2022-08-30T13:07:32.639Z,33.23
2022-08-30T13:10:12.049Z,32.12
2022-08-30T13:12:40.387Z,32.68
2022-08-30T13:15:14.212Z,32.40
2022-08-30T13:17:42.526Z,32.27
2022-08-30T13:20:22.908Z,32.08
2022-08-30T13:23:07.013Z,32.60
2022-08-30T13:25:38.327Z,32.81
2022-08-30T13:28:06.944Z,31.64
2022-08-30T13:30:35.119Z,31.59
2022-08-30T13:33:03.134Z,32.27
2022-08-30T13:35:31.131Z,32.85
2022-08-30T13:37:59.093Z,30.83
2022-08-30T13:40:27.065Z,32.78
2022-08-30T13:42:56.477Z,31.53
2022-08-30T13:45:44.429Z,32.44
2022-08-30T13:48:12.529Z,31.86
2022-08-30T13:50:40.932Z,31.81
2022-08-30T13:53:09.410Z,31.31
2022-08-30T13:55:38.331Z,31.50
2022-08-30T13:58:07.666Z,31.63
2022-08-30T14:00:38.127Z,30.94
2022-08-30T14:03:06.551Z,32.32
2022-08-30T14:06:09.966Z,31.65
2022-08-30T14:11:18.735Z,31.66
2022-08-30T14:16:37.101Z,32.49
2022-08-30T14:19:05.752Z,31.91
2022-08-30T14:21:33.944Z,30.78
2022-08-30T14:24:01.949Z,31.54
2022-08-30T14:26:32.924Z,31.72
2022-08-30T14:29:03.473Z,32.11
2022-08-30T14:31:33.350Z,32.05
2022-08-30T14:34:03.330Z,30.38
2022-08-30T14:36:32.221Z,31.47
2022-08-30T14:39:00.138Z,30.86
2022-08-30T14:41:28.346Z,31.98
2022-08-30T14:43:56.219Z,31.21
2022-08-30T14:46:26.963Z,31.24
2022-08-30T14:48:55.388Z,32.08
2022-08-30T14:51:24.002Z,29.45
2022-08-30T14:53:52.451Z,30.45
2022-08-30T14:56:22.487Z,31.62
2022-08-30T14:58:50.832Z,31.20
2022-08-30T15:01:19.183Z,30.47
2022-08-30T15:03:48.543Z,31.94
2022-08-30T15:06:16.583Z,31.37
2022-08-30T15:08:47.670Z,31.99
2022-08-30T15:11:17.703Z,31.63
2022-08-30T15:13:45.559Z,31.77
2022-08-30T15:16:14.959Z,31.67
2022-08-30T15:18:43.939Z,30.34
2022-08-30T15:21:13.296Z,31.16
2022-08-30T15:23:41.319Z,30.38
2022-08-30T15:26:09.861Z,30.87
2022-08-30T15:28:38.075Z,31.05
2022-08-30T15:31:09.077Z,29.67
2022-08-30T15:33:37.882Z,31.47
2022-08-30T15:36:06.214Z,29.04
2022-08-30T15:38:35.949Z,29.55
2022-08-30T15:41:07.201Z,30.80
2022-08-30T15:43:35.390Z,29.71
2022-08-30T15:46:17.878Z,29.68
2022-08-30T15:48:46.695Z,30.50
2022-08-30T15:51:14.944Z,30.85
2022-08-30T15:53:44.828Z,30.69
2022-08-30T15:56:12.974Z,31.23
2022-08-30T15:58:41.316Z,30.65
2022-08-30T16:01:09.281Z,29.86
2022-08-30T16:03:37.925Z,29.25
2022-08-30T16:06:07.694Z,29.94
2022-08-30T16:08:35.573Z,30.76
2022-08-30T16:11:06.015Z,30.67
2022-08-30T16:13:34.818Z,31.09
2022-08-30T16:16:08.076Z,29.88
2022-08-30T16:18:36.224Z,31.03
2022-08-30T16:21:05.525Z,30.14
2022-08-30T16:23:33.853Z,30.89
2022-08-30T16:26:04.174Z,28.04
2022-08-30T16:28:37.656Z,30.15
2022-08-30T16:31:07.357Z,30.79
2022-08-30T16:33:37.979Z,30.73
2022-08-30T16:36:10.943Z,29.42
2022-08-30T16:38:39.266Z,29.42
2022-08-30T16:41:08.465Z,28.45
2022-08-30T16:43:38.839Z,29.23
2022-08-30T16:46:08.441Z,29.54
2022-08-30T16:48:36.337Z,29.10
2022-08-30T16:51:08.794Z,28.90
2022-08-30T16:53:36.846Z,29.11
2022-08-30T16:56:08.213Z,29.77
2022-08-30T16:58:37.716Z,29.04
2022-08-30T17:01:09.548Z,28.88
2022-08-30T17:03:38.401Z,29.76
2022-08-30T17:06:07.174Z,29.92
2022-08-30T17:11:04.792Z,29.80
2022-08-30T17:13:33.245Z,29.74
2022-08-30T17:16:02.578Z,29.64
2022-08-30T17:18:30.487Z,29.57
2022-08-30T17:20:58.742Z,29.47
2022-08-30T17:23:26.908Z,29.39
2022-08-30T17:29:06.515Z,29.11
2022-08-30T17:31:37.429Z,29.05
2022-08-30T17:34:05.794Z,28.92
2022-08-30T17:36:35.468Z,28.91
2022-08-30T17:39:10.492Z,28.82
2022-08-30T17:41:39.759Z,28.71
2022-08-30T17:44:11.195Z,28.68
2022-08-30T17:46:40.475Z,28.63
2022-08-30T17:49:10.636Z,28.57
2022-08-30T17:51:41.912Z,28.48
2022-08-30T17:54:10.445Z,28.40
2022-08-30T17:56:39.585Z,28.34
2022-08-30T17:59:08.111Z,28.32
2022-08-30T18:01:37.288Z,28.25
2022-08-30T18:04:06.764Z,28.17
2022-08-30T18:06:34.879Z,28.10
2022-08-30T18:09:02.786Z,28.08
2022-08-30T18:11:30.740Z,28.00
2022-08-30T18:13:58.672Z,27.96
2022-08-30T18:16:27.868Z,27.91
2022-08-30T18:18:57.062Z,27.84
2022-08-30T18:21:28.511Z,27.71
2022-08-30T18:23:56.854Z,27.72
2022-08-30T18:26:24.988Z,27.63
2022-08-30T18:28:53.293Z,27.60
2022-08-30T18:31:21.329Z,27.54
2022-08-30T18:33:49.527Z,27.45
2022-08-30T18:36:17.850Z,27.41
2022-08-30T18:38:47.591Z,27.35
2022-08-30T18:41:15.658Z,27.29
2022-08-30T18:43:43.888Z,27.25
2022-08-30T18:46:14.044Z,27.19
2022-08-30T18:48:42.775Z,27.16
2022-08-30T18:51:11.535Z,27.08
2022-08-30T18:53:39.353Z,27.01
2022-08-30T18:56:10.370Z,26.98
2022-08-30T18:58:40.259Z,26.98
2022-08-30T19:01:12.948Z,26.95
2022-08-30T19:03:41.941Z,26.86
2022-08-30T19:06:11.346Z,26.83
2022-08-30T19:08:40.140Z,26.77
2022-08-30T19:11:08.505Z,26.77
2022-08-30T19:13:37.758Z,26.71
2022-08-30T19:16:07.458Z,26.66
2022-08-30T19:18:40.134Z,26.65
2022-08-30T19:21:13.471Z,26.61
2022-08-30T19:23:41.750Z,26.61
2022-08-30T19:26:10.933Z,26.54
2022-08-30T19:28:40.319Z,26.56
2022-08-30T19:31:08.310Z,26.56
2022-08-30T19:33:36.175Z,26.56
2022-08-30T19:36:06.883Z,26.53
2022-08-30T19:38:35.633Z,26.50
2022-08-30T19:41:03.795Z,26.47
2022-08-30T19:43:31.644Z,26.41
2022-08-30T19:46:01.304Z,26.24
2022-08-30T19:48:32.455Z,26.37
2022-08-30T19:51:01.424Z,26.24
2022-08-30T19:53:29.480Z,26.28
2022-08-30T19:55:57.369Z,26.21
2022-08-30T19:58:25.515Z,26.18
2022-08-30T20:00:54.648Z,26.16
2022-08-30T20:03:29.950Z,26.12
2022-08-30T20:05:57.936Z,26.07
2022-08-30T20:08:26.040Z,26.02
2022-08-30T20:10:54.091Z,26.04
2022-08-30T20:13:23.530Z,25.97
2022-08-30T20:15:55.825Z,25.96
2022-08-30T20:18:25.938Z,25.90
2022-08-30T20:20:55.215Z,25.90
2022-08-30T20:23:23.898Z,25.92
2022-08-30T20:25:53.390Z,25.91
2022-08-30T20:28:21.655Z,25.88
2022-08-30T20:30:49.879Z,25.85
2022-08-30T20:33:18.180Z,25.82
2022-08-30T20:35:49.249Z,25.79
2022-08-30T20:38:21.944Z,25.79
2022-08-30T20:40:51.409Z,25.58
2022-08-30T20:43:19.497Z,25.74
2022-08-30T20:45:47.527Z,25.73
2022-08-30T20:48:15.420Z,25.64
2022-08-30T20:50:43.520Z,25.72
2022-08-30T20:53:11.524Z,25.72
2022-08-30T20:55:43.525Z,25.66
2022-08-30T20:58:11.499Z,25.70
2022-08-30T21:00:39.586Z,25.69
2022-08-30T21:03:25.536Z,25.65
2022-08-30T21:05:55.069Z,25.63
2022-08-30T21:08:23.096Z,25.61
2022-08-30T21:10:52.364Z,25.60
2022-08-30T21:13:20.393Z,25.56
2022-08-30T21:15:52.825Z,25.47
2022-08-30T21:18:23.550Z,25.43
2022-08-30T21:20:51.506Z,25.61
2022-08-30T21:23:19.466Z,25.58
2022-08-30T21:25:47.326Z,25.55
2022-08-30T21:28:17.647Z,25.54
2022-08-30T21:30:45.932Z,25.52
2022-08-30T21:33:13.883Z,25.50
2022-08-30T21:35:59.141Z,25.51
2022-08-30T21:38:27.112Z,25.49
2022-08-30T21:40:55.094Z,25.48
2022-08-30T21:43:24.327Z,25.40
2022-08-30T21:45:53.619Z,25.37
2022-08-30T21:48:21.526Z,25.33
2022-08-30T21:50:49.445Z,25.31
2022-08-30T21:53:17.452Z,25.24
2022-08-30T21:55:45.862Z,25.25
2022-08-30T21:58:16.144Z,25.24
2022-08-30T22:00:45.492Z,25.24
2022-08-30T22:03:13.653Z,25.21
2022-08-30T22:05:41.934Z,25.18
2022-08-30T22:08:09.812Z,25.15
2022-08-30T22:10:37.643Z,25.13
2022-08-30T22:13:06.409Z,25.08
2022-08-30T22:15:34.938Z,25.04
2022-08-30T22:18:04.451Z,25.03
2022-08-30T22:20:32.373Z,24.96
2022-08-30T22:23:00.372Z,25.00
2022-08-30T22:25:28.212Z,24.99
2022-08-30T22:27:56.155Z,24.95
2022-08-30T22:30:24.051Z,24.95
2022-08-30T22:32:52.729Z,24.93
2022-08-30T22:35:23.824Z,24.92
2022-08-30T22:37:53.204Z,24.91
2022-08-30T22:40:21.733Z,24.84
2022-08-30T22:42:49.691Z,24.85
2022-08-30T22:45:17.746Z,24.82
2022-08-30T22:47:45.626Z,24.79
2022-08-30T22:50:14.286Z,24.77
2022-08-30T22:52:44.017Z,24.72
2022-08-30T22:55:11.838Z,24.73
2022-08-30T22:57:39.948Z,24.73
2022-08-30T23:00:10.579Z,24.68
2022-08-30T23:02:38.615Z,24.71
2022-08-30T23:05:07.292Z,24.66
2022-08-30T23:07:35.263Z,24.67
